sensor_id;sensor_type;location;lat;lon;timestamp;pressure;altitude;pressure_sealevel;temperature;humidity
69855;BME280;57146;48.140;16.304;2024-02-21T00:00:25;100311.47;;;6.48;73.95
69855;BME280;57146;48.140;16.304;2024-02-21T00:02:52;100301.31;;;6.52;73.96
69855;BME280;57146;48.140;16.304;2024-02-21T00:05:21;100301.78;;;6.48;73.52
69855;BME280;57146;48.140;16.304;2024-02-21T00:07:49;100299.97;;;6.49;73.53
69855;BME280;57146;48.140;16.304;2024-02-21T00:10:16;100296.56;;;6.48;73.65
69855;BME280;57146;48.140;16.304;2024-02-21T00:12:44;100297.34;;;6.49;73.04
69855;BME280;57146;48.140;16.304;2024-02-21T00:15:11;100297.91;;;6.51;71.65
69855;BME280;57146;48.140;16.304;2024-02-21T00:17:38;100299.69;;;6.51;72.83
69855;BME280;57146;48.140;16.304;2024-02-21T00:20:06;100303.91;;;6.52;73.33
69855;BME280;57146;48.140;16.304;2024-02-21T00:22:34;100304.16;;;6.50;72.75
69855;BME280;57146;48.140;16.304;2024-02-21T00:25:01;100298.91;;;6.50;73.00
69855;BME280;57146;48.140;16.304;2024-02-21T00:27:28;100289.53;;;6.54;71.79
69855;BME280;57146;48.140;16.304;2024-02-21T00:29:55;100300.00;;;6.54;71.96
69855;BME280;57146;48.140;16.304;2024-02-21T00:32:23;100291.13;;;6.55;71.67
69855;BME280;57146;48.140;16.304;2024-02-21T00:34:50;100286.91;;;6.54;72.12
69855;BME280;57146;48.140;16.304;2024-02-21T00:37:18;100286.41;;;6.52;72.92
69855;BME280;57146;48.140;16.304;2024-02-21T00:39:46;100283.78;;;6.52;72.97
69855;BME280;57146;48.140;16.304;2024-02-21T00:42:13;100288.47;;;6.50;72.76
69855;BME280;57146;48.140;16.304;2024-02-21T00:44:40;100280.63;;;6.50;71.93
69855;BME280;57146;48.140;16.304;2024-02-21T00:47:07;100276.41;;;6.49;72.73
69855;BME280;57146;48.140;16.304;2024-02-21T00:49:35;100281.41;;;6.51;72.75
69855;BME280;57146;48.140;16.304;2024-02-21T00:52:03;100264.69;;;6.52;72.18
69855;BME280;57146;48.140;16.304;2024-02-21T00:54:30;100267.31;;;6.52;71.63
69855;BME280;57146;48.140;16.304;2024-02-21T00:57:13;100264.44;;;6.53;72.15
69855;BME280;57146;48.140;16.304;2024-02-21T00:59:40;100262.84;;;6.52;71.69
69855;BME280;57146;48.140;16.304;2024-02-21T01:02:08;100260.47;;;6.51;71.41
69855;BME280;57146;48.140;16.304;2024-02-21T01:04:35;100266.50;;;6.51;72.46
69855;BME280;57146;48.140;16.304;2024-02-21T01:07:02;100251.59;;;6.52;71.25
69855;BME280;57146;48.140;16.304;2024-02-21T01:09:33;100258.97;;;6.55;70.42
69855;BME280;57146;48.140;16.304;2024-02-21T01:12:00;100256.09;;;6.56;70.10
69855;BME280;57146;48.140;16.304;2024-02-21T01:14:31;100250.28;;;6.54;71.52
69855;BME280;57146;48.140;16.304;2024-02-21T01:17:22;100242.44;;;6.54;70.75
69855;BME280;57146;48.140;16.304;2024-02-21T01:19:49;100247.69;;;6.54;71.15
69855;BME280;57146;48.140;16.304;2024-02-21T01:22:18;100240.13;;;6.58;70.95
69855;BME280;57146;48.140;16.304;2024-02-21T01:25:10;100242.75;;;6.58;71.53
69855;BME280;57146;48.140;16.304;2024-02-21T01:27:39;100248.22;;;6.56;71.46
69855;BME280;57146;48.140;16.304;2024-02-21T01:30:06;100248.50;;;6.55;71.08
69855;BME280;57146;48.140;16.304;2024-02-21T01:32:58;100251.91;;;6.55;70.76
69855;BME280;57146;48.140;16.304;2024-02-21T01:35:26;100245.88;;;6.55;71.24
69855;BME280;57146;48.140;16.304;2024-02-21T01:37:53;100244.06;;;6.55;71.38
69855;BME280;57146;48.140;16.304;2024-02-21T01:40:20;100231.75;;;6.56;71.66
69855;BME280;57146;48.140;16.304;2024-02-21T01:42:47;100237.47;;;6.53;71.05
69855;BME280;57146;48.140;16.304;2024-02-21T01:45:39;100228.34;;;6.55;71.78
69855;BME280;57146;48.140;16.304;2024-02-21T01:48:07;100217.91;;;6.55;71.74
69855;BME280;57146;48.140;16.304;2024-02-21T01:50:35;100215.50;;;6.54;71.27
69855;BME280;57146;48.140;16.304;2024-02-21T01:53:04;100222.84;;;6.52;72.07
69855;BME280;57146;48.140;16.304;2024-02-21T01:55:32;100220.44;;;6.50;71.82
69855;BME280;57146;48.140;16.304;2024-02-21T01:58:02;100213.91;;;6.47;71.70
69855;BME280;57146;48.140;16.304;2024-02-21T02:00:29;100213.38;;;6.51;71.93
69855;BME280;57146;48.140;16.304;2024-02-21T02:02:56;100212.06;;;6.48;72.28
69855;BME280;57146;48.140;16.304;2024-02-21T02:05:24;100205.50;;;6.45;71.68
69855;BME280;57146;48.140;16.304;2024-02-21T02:07:52;100206.28;;;6.46;71.16
69855;BME280;57146;48.140;16.304;2024-02-21T02:10:19;100206.06;;;6.47;70.50
69855;BME280;57146;48.140;16.304;2024-02-21T02:12:46;100200.00;;;6.47;71.17
69855;BME280;57146;48.140;16.304;2024-02-21T02:15:13;100193.22;;;6.46;70.36
69855;BME280;57146;48.140;16.304;2024-02-21T02:17:40;100191.38;;;6.46;70.90
69855;BME280;57146;48.140;16.304;2024-02-21T02:20:08;100205.25;;;6.47;71.65
69855;BME280;57146;48.140;16.304;2024-02-21T02:22:37;100194.78;;;6.47;70.88
69855;BME280;57146;48.140;16.304;2024-02-21T02:25:06;100194.00;;;6.46;71.01
69855;BME280;57146;48.140;16.304;2024-02-21T02:27:41;100191.38;;;6.46;71.38
69855;BME280;57146;48.140;16.304;2024-02-21T02:30:10;100185.38;;;6.46;71.58
69855;BME280;57146;48.140;16.304;2024-02-21T02:32:38;100192.44;;;6.45;70.79
69855;BME280;57146;48.140;16.304;2024-02-21T02:35:05;100195.03;;;6.45;70.43
69855;BME280;57146;48.140;16.304;2024-02-21T02:37:33;100181.97;;;6.45;70.92
69855;BME280;57146;48.140;16.304;2024-02-21T02:40:00;100183.53;;;6.46;70.74
69855;BME280;57146;48.140;16.304;2024-02-21T02:42:28;100181.97;;;6.45;71.16
69855;BME280;57146;48.140;16.304;2024-02-21T02:44:56;100181.72;;;6.47;71.20
69855;BME280;57146;48.140;16.304;2024-02-21T02:47:23;100177.53;;;6.46;70.31
69855;BME280;57146;48.140;16.304;2024-02-21T02:49:51;100180.91;;;6.46;70.98
69855;BME280;57146;48.140;16.304;2024-02-21T02:52:19;100181.47;;;6.48;71.05
69855;BME280;57146;48.140;16.304;2024-02-21T02:54:46;100178.31;;;6.46;70.47
69855;BME280;57146;48.140;16.304;2024-02-21T02:57:13;100181.97;;;6.45;71.01
69855;BME280;57146;48.140;16.304;2024-02-21T02:59:40;100183.81;;;6.45;71.47
69855;BME280;57146;48.140;16.304;2024-02-21T03:02:09;100180.41;;;6.44;71.39
69855;BME280;57146;48.140;16.304;2024-02-21T03:04:39;100175.66;;;6.41;71.55
69855;BME280;57146;48.140;16.304;2024-02-21T03:07:07;100175.66;;;6.41;71.32
69855;BME280;57146;48.140;16.304;2024-02-21T03:09:34;100177.78;;;6.44;70.76
69855;BME280;57146;48.140;16.304;2024-02-21T03:12:01;100177.00;;;6.44;71.10
69855;BME280;57146;48.140;16.304;2024-02-21T03:14:29;100172.00;;;6.42;70.56
69855;BME280;57146;48.140;16.304;2024-02-21T03:16:57;100168.06;;;6.40;71.13
69855;BME280;57146;48.140;16.304;2024-02-21T03:19:25;100172.56;;;6.44;70.27
69855;BME280;57146;48.140;16.304;2024-02-21T03:21:52;100174.13;;;6.45;70.87
69855;BME280;57146;48.140;16.304;2024-02-21T03:24:19;100167.56;;;6.43;71.05
69855;BME280;57146;48.140;16.304;2024-02-21T03:26:48;100169.38;;;6.42;71.06
69855;BME280;57146;48.140;16.304;2024-02-21T03:29:15;100170.44;;;6.41;71.22
69855;BME280;57146;48.140;16.304;2024-02-21T03:31:43;100169.66;;;6.41;70.89
69855;BME280;57146;48.140;16.304;2024-02-21T03:34:10;100180.91;;;6.41;70.37
69855;BME280;57146;48.140;16.304;2024-02-21T03:36:39;100170.44;;;6.41;71.24
69855;BME280;57146;48.140;16.304;2024-02-21T03:39:06;100176.72;;;6.40;70.63
69855;BME280;57146;48.140;16.304;2024-02-21T03:41:33;100180.34;;;6.39;70.93
69855;BME280;57146;48.140;16.304;2024-02-21T03:44:01;100179.81;;;6.37;70.60
69855;BME280;57146;48.140;16.304;2024-02-21T03:46:28;100176.72;;;6.40;71.58
69855;BME280;57146;48.140;16.304;2024-02-21T03:48:55;100182.97;;;6.39;72.30
69855;BME280;57146;48.140;16.304;2024-02-21T03:51:22;100183.22;;;6.38;72.39
69855;BME280;57146;48.140;16.304;2024-02-21T03:53:49;100187.16;;;6.40;72.38
69855;BME280;57146;48.140;16.304;2024-02-21T03:56:16;100183.72;;;6.35;73.82
69855;BME280;57146;48.140;16.304;2024-02-21T03:58:43;100183.16;;;6.33;73.16
69855;BME280;57146;48.140;16.304;2024-02-21T04:01:11;100172.66;;;6.28;73.96
69855;BME280;57146;48.140;16.304;2024-02-21T04:03:38;100184.19;;;6.27;73.55
69855;BME280;57146;48.140;16.304;2024-02-21T04:06:05;100170.56;;;6.24;74.17
69855;BME280;57146;48.140;16.304;2024-02-21T04:08:32;100178.88;;;6.21;73.90
69855;BME280;57146;48.140;16.304;2024-02-21T04:11:00;100182.78;;;6.19;73.48
69855;BME280;57146;48.140;16.304;2024-02-21T04:13:28;100183.28;;;6.16;73.94
69855;BME280;57146;48.140;16.304;2024-02-21T04:15:55;100187.19;;;6.13;74.15
69855;BME280;57146;48.140;16.304;2024-02-21T04:18:23;100184.75;;;6.07;74.18
69855;BME280;57146;48.140;16.304;2024-02-21T04:20:51;100183.72;;;6.08;73.13
69855;BME280;57146;48.140;16.304;2024-02-21T04:23:18;100177.47;;;6.09;73.88
69855;BME280;57146;48.140;16.304;2024-02-21T04:25:45;100181.59;;;6.05;73.76
69855;BME280;57146;48.140;16.304;2024-02-21T04:28:12;100169.56;;;6.04;73.57
69855;BME280;57146;48.140;16.304;2024-02-21T04:30:41;100177.41;;;6.04;73.97
69855;BME280;57146;48.140;16.304;2024-02-21T04:33:08;100177.41;;;6.04;74.13
69855;BME280;57146;48.140;16.304;2024-02-21T04:35:36;100170.84;;;6.01;74.07
69855;BME280;57146;48.140;16.304;2024-02-21T04:38:03;100172.69;;;6.00;73.68
69855;BME280;57146;48.140;16.304;2024-02-21T04:40:31;100160.38;;;6.01;73.77
69855;BME280;57146;48.140;16.304;2024-02-21T04:42:58;100168.00;;;6.03;73.40
69855;BME280;57146;48.140;16.304;2024-02-21T04:45:25;100162.78;;;6.03;73.29
69855;BME280;57146;48.140;16.304;2024-02-21T04:47:52;100165.69;;;6.06;73.34
69855;BME280;57146;48.140;16.304;2024-02-21T04:50:19;100161.50;;;6.05;73.64
69855;BME280;57146;48.140;16.304;2024-02-21T04:52:46;100154.44;;;6.06;73.44
69855;BME280;57146;48.140;16.304;2024-02-21T04:55:14;100165.13;;;6.04;73.06
69855;BME280;57146;48.140;16.304;2024-02-21T04:57:41;100147.38;;;6.06;72.79
69855;BME280;57146;48.140;16.304;2024-02-21T05:00:08;100150.53;;;6.08;73.35
69855;BME280;57146;48.140;16.304;2024-02-21T05:02:35;100152.34;;;6.08;72.80
69855;BME280;57146;48.140;16.304;2024-02-21T05:05:03;100146.63;;;6.11;72.64
69855;BME280;57146;48.140;16.304;2024-02-21T05:07:30;100141.69;;;6.14;72.72
69855;BME280;57146;48.140;16.304;2024-02-21T05:09:57;100145.84;;;6.10;72.59
69855;BME280;57146;48.140;16.304;2024-02-21T05:12:24;100150.81;;;6.12;72.11
69855;BME280;57146;48.140;16.304;2024-02-21T05:14:51;100144.81;;;6.11;72.05
69855;BME280;57146;48.140;16.304;2024-02-21T05:17:18;100141.97;;;6.13;72.24
69855;BME280;57146;48.140;16.304;2024-02-21T05:19:45;100136.72;;;6.13;71.99
69855;BME280;57146;48.140;16.304;2024-02-21T05:22:12;100143.78;;;6.12;71.37
69855;BME280;57146;48.140;16.304;2024-02-21T05:24:40;100143.28;;;6.15;71.92
69855;BME280;57146;48.140;16.304;2024-02-21T05:27:07;100142.25;;;6.16;71.22
69855;BME280;57146;48.140;16.304;2024-02-21T05:29:34;100137.81;;;6.17;70.80
69855;BME280;57146;48.140;16.304;2024-02-21T05:32:02;100125.78;;;6.16;70.92
69855;BME280;57146;48.140;16.304;2024-02-21T05:34:29;100127.34;;;6.17;71.31
69855;BME280;57146;48.140;16.304;2024-02-21T05:36:56;100129.97;;;6.17;70.97
69855;BME280;57146;48.140;16.304;2024-02-21T05:39:24;100133.09;;;6.19;71.23
69855;BME280;57146;48.140;16.304;2024-02-21T05:41:52;100133.38;;;6.17;71.42
69855;BME280;57146;48.140;16.304;2024-02-21T05:44:19;100133.91;;;6.19;71.24
69855;BME280;57146;48.140;16.304;2024-02-21T05:46:46;100124.47;;;6.18;71.04
69855;BME280;57146;48.140;16.304;2024-02-21T05:49:13;100127.63;;;6.20;70.45
69855;BME280;57146;48.140;16.304;2024-02-21T05:51:40;100115.34;;;6.21;69.27
69855;BME280;57146;48.140;16.304;2024-02-21T05:54:07;100119.53;;;6.22;69.65
69855;BME280;57146;48.140;16.304;2024-02-21T05:56:34;100124.03;;;6.27;69.23
69855;BME280;57146;48.140;16.304;2024-02-21T05:59:01;100115.94;;;6.28;68.81
69855;BME280;57146;48.140;16.304;2024-02-21T06:01:28;100114.88;;;6.29;68.09
69855;BME280;57146;48.140;16.304;2024-02-21T06:03:55;100115.69;;;6.30;68.50
69855;BME280;57146;48.140;16.304;2024-02-21T06:06:22;100119.09;;;6.30;68.89
69855;BME280;57146;48.140;16.304;2024-02-21T06:08:49;100116.00;;;6.33;67.61
69855;BME280;57146;48.140;16.304;2024-02-21T06:11:16;100113.38;;;6.33;67.79
69855;BME280;57146;48.140;16.304;2024-02-21T06:13:44;100112.31;;;6.34;67.33
69855;BME280;57146;48.140;16.304;2024-02-21T06:16:11;100114.69;;;6.36;66.70
69855;BME280;57146;48.140;16.304;2024-02-21T06:18:38;100116.50;;;6.35;67.94
69855;BME280;57146;48.140;16.304;2024-02-21T06:21:05;100112.59;;;6.38;67.81
69855;BME280;57146;48.140;16.304;2024-02-21T06:23:32;100113.88;;;6.35;67.67
69855;BME280;57146;48.140;16.304;2024-02-21T06:25:59;100113.13;;;6.40;66.75
69855;BME280;57146;48.140;16.304;2024-02-21T06:28:26;100114.97;;;6.39;66.90
69855;BME280;57146;48.140;16.304;2024-02-21T06:30:58;100109.50;;;6.41;66.93
69855;BME280;57146;48.140;16.304;2024-02-21T06:33:25;100111.09;;;6.47;68.25
69855;BME280;57146;48.140;16.304;2024-02-21T06:35:52;100104.56;;;6.50;66.76
69855;BME280;57146;48.140;16.304;2024-02-21T06:38:19;100103.25;;;6.47;67.77
69855;BME280;57146;48.140;16.304;2024-02-21T06:40:46;100111.09;;;6.47;67.06
69855;BME280;57146;48.140;16.304;2024-02-21T06:43:19;100108.72;;;6.45;66.76
69855;BME280;57146;48.140;16.304;2024-02-21T06:45:47;100105.34;;;6.45;66.80
69855;BME280;57146;48.140;16.304;2024-02-21T06:48:15;100114.22;;;6.44;66.78
69855;BME280;57146;48.140;16.304;2024-02-21T06:50:42;100111.63;;;6.44;67.11
69855;BME280;57146;48.140;16.304;2024-02-21T06:53:09;100107.94;;;6.45;66.47
69855;BME280;57146;48.140;16.304;2024-02-21T06:55:37;100113.47;;;6.48;67.22
69855;BME280;57146;48.140;16.304;2024-02-21T06:58:06;100110.31;;;6.46;67.03
69855;BME280;57146;48.140;16.304;2024-02-21T07:00:59;100111.63;;;6.49;67.04
69855;BME280;57146;48.140;16.304;2024-02-21T07:03:27;100106.13;;;6.51;67.11
69855;BME280;57146;48.140;16.304;2024-02-21T07:05:54;100100.38;;;6.48;67.93
69855;BME280;57146;48.140;16.304;2024-02-21T07:08:22;100116.38;;;6.52;67.04
69855;BME280;57146;48.140;16.304;2024-02-21T07:10:49;100106.44;;;6.54;66.91
69855;BME280;57146;48.140;16.304;2024-02-21T07:13:17;100095.97;;;6.54;66.75
69855;BME280;57146;48.140;16.304;2024-02-21T07:15:45;100099.41;;;6.55;66.96
69855;BME280;57146;48.140;16.304;2024-02-21T07:18:12;100102.78;;;6.55;67.21
69855;BME280;57146;48.140;16.304;2024-02-21T07:20:39;100100.41;;;6.54;68.54
69855;BME280;57146;48.140;16.304;2024-02-21T07:23:10;100109.03;;;6.54;67.49
69855;BME280;57146;48.140;16.304;2024-02-21T07:25:38;100101.75;;;6.56;67.23
69855;BME280;57146;48.140;16.304;2024-02-21T07:28:06;100102.03;;;6.60;66.41
69855;BME280;57146;48.140;16.304;2024-02-21T07:30:35;100087.16;;;6.65;66.54
69855;BME280;57146;48.140;16.304;2024-02-21T07:33:02;100099.47;;;6.70;66.24
69855;BME280;57146;48.140;16.304;2024-02-21T07:35:29;100086.41;;;6.75;67.25
69855;BME280;57146;48.140;16.304;2024-02-21T07:37:57;100086.19;;;6.82;68.00
69855;BME280;57146;48.140;16.304;2024-02-21T07:40:25;100080.19;;;6.86;67.58
69855;BME280;57146;48.140;16.304;2024-02-21T07:42:54;100087.00;;;6.92;66.90
69855;BME280;57146;48.140;16.304;2024-02-21T07:45:21;100095.44;;;7.00;66.61
69855;BME280;57146;48.140;16.304;2024-02-21T07:47:48;100085.00;;;7.05;66.68
69855;BME280;57146;48.140;16.304;2024-02-21T07:50:16;100089.19;;;7.11;66.52
69855;BME280;57146;48.140;16.304;2024-02-21T07:52:44;100091.56;;;7.12;66.17
69855;BME280;57146;48.140;16.304;2024-02-21T07:55:14;100092.84;;;7.15;65.03
69855;BME280;57146;48.140;16.304;2024-02-21T07:57:43;100089.72;;;7.18;66.06
69855;BME280;57146;48.140;16.304;2024-02-21T08:00:11;100086.09;;;7.24;66.30
69855;BME280;57146;48.140;16.304;2024-02-21T08:02:39;100085.06;;;7.30;67.04
69855;BME280;57146;48.140;16.304;2024-02-21T08:05:10;100085.34;;;7.39;66.78
69855;BME280;57146;48.140;16.304;2024-02-21T08:07:38;100090.34;;;7.46;63.95
69855;BME280;57146;48.140;16.304;2024-02-21T08:10:06;100092.19;;;7.50;65.07
69855;BME280;57146;48.140;16.304;2024-02-21T08:12:57;100079.09;;;7.55;64.91
69855;BME280;57146;48.140;16.304;2024-02-21T08:15:48;100077.53;;;7.59;65.49
69855;BME280;57146;48.140;16.304;2024-02-21T08:18:17;100069.16;;;7.67;65.00
69855;BME280;57146;48.140;16.304;2024-02-21T08:20:44;100078.34;;;7.75;63.63
69855;BME280;57146;48.140;16.304;2024-02-21T08:23:37;100073.63;;;8.03;64.28
69855;BME280;57146;48.140;16.304;2024-02-21T08:26:04;100068.38;;;8.23;64.57
69855;BME280;57146;48.140;16.304;2024-02-21T08:28:31;100067.63;;;8.43;65.06
69855;BME280;57146;48.140;16.304;2024-02-21T08:30:59;100066.28;;;8.51;62.95
69855;BME280;57146;48.140;16.304;2024-02-21T08:33:27;100066.22;;;8.71;64.28
69855;BME280;57146;48.140;16.304;2024-02-21T08:36:19;100066.19;;;8.81;60.80
69855;BME280;57146;48.140;16.304;2024-02-21T08:38:47;100060.88;;;8.92;62.22
69855;BME280;57146;48.140;16.304;2024-02-21T08:41:14;100054.56;;;8.93;60.75
69855;BME280;57146;48.140;16.304;2024-02-21T08:43:41;100058.06;;;8.83;59.37
69855;BME280;57146;48.140;16.304;2024-02-21T08:46:08;100058.56;;;8.85;60.81
69855;BME280;57146;48.140;16.304;2024-02-21T08:48:36;100054.66;;;8.82;58.96
69855;BME280;57146;48.140;16.304;2024-02-21T08:51:04;100043.28;;;8.92;60.50
69855;BME280;57146;48.140;16.304;2024-02-21T08:53:36;100049.31;;;8.98;61.16
69855;BME280;57146;48.140;16.304;2024-02-21T08:56:04;100048.28;;;8.94;59.23
69855;BME280;57146;48.140;16.304;2024-02-21T08:58:57;100041.44;;;8.98;60.58
69855;BME280;57146;48.140;16.304;2024-02-21T09:01:26;100037.75;;;8.99;61.60
69855;BME280;57146;48.140;16.304;2024-02-21T09:03:53;100033.03;;;9.01;60.90
69855;BME280;57146;48.140;16.304;2024-02-21T09:06:22;100032.75;;;9.07;61.70
69855;BME280;57146;48.140;16.304;2024-02-21T09:08:49;100025.63;;;9.08;60.15
69855;BME280;57146;48.140;16.304;2024-02-21T09:11:16;100025.25;;;9.30;59.07
69855;BME280;57146;48.140;16.304;2024-02-21T09:13:45;100024.13;;;9.41;61.14
69855;BME280;57146;48.140;16.304;2024-02-21T09:16:12;100026.22;;;9.39;58.12
69855;BME280;57146;48.140;16.304;2024-02-21T09:18:39;100015.34;;;9.56;60.81
69855;BME280;57146;48.140;16.304;2024-02-21T09:21:07;100012.22;;;9.54;58.95
69855;BME280;57146;48.140;16.304;2024-02-21T09:23:33;100008.75;;;9.58;59.71
69855;BME280;57146;48.140;16.304;2024-02-21T09:26:01;100003.22;;;9.60;60.44
69855;BME280;57146;48.140;16.304;2024-02-21T09:28:28;100010.09;;;9.56;59.90
69855;BME280;57146;48.140;16.304;2024-02-21T09:30:57;99997.78;;;9.51;59.19
69855;BME280;57146;48.140;16.304;2024-02-21T09:33:24;100010.97;;;9.46;58.86
69855;BME280;57146;48.140;16.304;2024-02-21T09:35:58;100003.03;;;9.51;60.24
69855;BME280;57146;48.140;16.304;2024-02-21T09:38:25;100005.94;;;9.50;59.71
69855;BME280;57146;48.140;16.304;2024-02-21T09:41:03;100005.41;;;9.48;58.54
69855;BME280;57146;48.140;16.304;2024-02-21T09:43:33;100003.31;;;9.50;59.20
69855;BME280;57146;48.140;16.304;2024-02-21T09:46:02;100004.09;;;9.50;58.31
69855;BME280;57146;48.140;16.304;2024-02-21T09:51:22;99991.75;;;9.51;58.21
69855;BME280;57146;48.140;16.304;2024-02-21T09:53:50;100004.59;;;9.52;57.30
69855;BME280;57146;48.140;16.304;2024-02-21T09:56:32;99993.78;;;9.59;57.90
69855;BME280;57146;48.140;16.304;2024-02-21T09:59:01;99993.06;;;9.82;57.94
69855;BME280;57146;48.140;16.304;2024-02-21T10:01:28;99979.44;;;10.04;56.60
69855;BME280;57146;48.140;16.304;2024-02-21T10:04:01;99977.78;;;10.38;56.91
69855;BME280;57146;48.140;16.304;2024-02-21T10:06:28;99986.09;;;10.50;54.89
69855;BME280;57146;48.140;16.304;2024-02-21T10:08:55;99991.63;;;10.72;55.35
69855;BME280;57146;48.140;16.304;2024-02-21T10:11:25;99981.06;;;10.72;53.20
69855;BME280;57146;48.140;16.304;2024-02-21T10:14:08;99982.38;;;10.75;54.58
69855;BME280;57146;48.140;16.304;2024-02-21T10:16:35;99981.81;;;10.78;54.14
69855;BME280;57146;48.140;16.304;2024-02-21T10:19:02;99988.19;;;10.72;53.89
69855;BME280;57146;48.140;16.304;2024-02-21T10:21:29;99972.22;;;10.63;55.28
69855;BME280;57146;48.140;16.304;2024-02-21T10:23:57;99982.31;;;10.56;53.12
69855;BME280;57146;48.140;16.304;2024-02-21T10:26:24;99974.63;;;10.60;54.94
69855;BME280;57146;48.140;16.304;2024-02-21T10:28:51;99970.78;;;10.52;54.01
69855;BME280;57146;48.140;16.304;2024-02-21T10:31:23;99966.31;;;10.52;54.58
69855;BME280;57146;48.140;16.304;2024-02-21T10:33:59;99965.69;;;10.61;55.51
69855;BME280;57146;48.140;16.304;2024-02-21T10:36:26;99969.03;;;10.66;55.33
69855;BME280;57146;48.140;16.304;2024-02-21T10:38:54;99965.34;;;10.67;55.32
69855;BME280;57146;48.140;16.304;2024-02-21T10:41:22;99963.28;;;10.64;54.20
69855;BME280;57146;48.140;16.304;2024-02-21T10:43:52;99954.88;;;10.81;55.19
69855;BME280;57146;48.140;16.304;2024-02-21T10:46:21;99953.19;;;10.90;54.44
69855;BME280;57146;48.140;16.304;2024-02-21T10:49:01;99951.56;;;10.94;52.47
69855;BME280;57146;48.140;16.304;2024-02-21T10:51:33;99944.63;;;10.98;53.60
69855;BME280;57146;48.140;16.304;2024-02-21T10:54:13;99956.69;;;11.05;55.33
69855;BME280;57146;48.140;16.304;2024-02-21T10:56:43;99951.13;;;11.06;53.77
69855;BME280;57146;48.140;16.304;2024-02-21T10:59:13;99954.34;;;11.03;53.76
69855;BME280;57146;48.140;16.304;2024-02-21T11:01:40;99951.50;;;10.99;54.04
69855;BME280;57146;48.140;16.304;2024-02-21T11:04:08;99948.50;;;10.87;52.05
69855;BME280;57146;48.140;16.304;2024-02-21T11:06:37;99942.75;;;10.85;53.56
69855;BME280;57146;48.140;16.304;2024-02-21T11:09:07;99942.34;;;10.73;52.44
69855;BME280;57146;48.140;16.304;2024-02-21T11:11:35;99935.31;;;10.68;52.42
69855;BME280;57146;48.140;16.304;2024-02-21T11:14:28;99925.13;;;10.62;53.24
69855;BME280;57146;48.140;16.304;2024-02-21T11:16:54;99934.22;;;10.50;52.67
69855;BME280;57146;48.140;16.304;2024-02-21T11:19:28;99933.50;;;10.45;53.84
69855;BME280;57146;48.140;16.304;2024-02-21T11:21:57;99922.75;;;10.41;53.73
69855;BME280;57146;48.140;16.304;2024-02-21T11:24:32;99928.56;;;10.38;53.29
69855;BME280;57146;48.140;16.304;2024-02-21T11:29:43;99924.47;;;10.32;54.84
69855;BME280;57146;48.140;16.304;2024-02-21T11:32:11;99913.63;;;10.34;55.07
69855;BME280;57146;48.140;16.304;2024-02-21T11:34:38;99910.00;;;10.29;54.52
69855;BME280;57146;48.140;16.304;2024-02-21T11:37:15;99898.94;;;10.33;55.46
69855;BME280;57146;48.140;16.304;2024-02-21T11:39:42;99897.06;;;10.33;55.04
69855;BME280;57146;48.140;16.304;2024-02-21T11:42:09;99891.72;;;10.38;56.26
69855;BME280;57146;48.140;16.304;2024-02-21T11:44:37;99885.97;;;10.36;55.05
69855;BME280;57146;48.140;16.304;2024-02-21T11:47:04;99889.31;;;10.42;57.02
69855;BME280;57146;48.140;16.304;2024-02-21T11:49:37;99880.94;;;10.40;52.64
69855;BME280;57146;48.140;16.304;2024-02-21T11:52:04;99876.88;;;10.47;54.76
69855;BME280;57146;48.140;16.304;2024-02-21T11:54:33;99871.31;;;10.49;55.23
69855;BME280;57146;48.140;16.304;2024-02-21T11:57:00;99863.38;;;10.54;54.39
69855;BME280;57146;48.140;16.304;2024-02-21T11:59:30;99861.22;;;10.56;54.70
69855;BME280;57146;48.140;16.304;2024-02-21T12:02:01;99858.88;;;10.54;52.91
69855;BME280;57146;48.140;16.304;2024-02-21T12:04:29;99862.81;;;10.57;54.09
69855;BME280;57146;48.140;16.304;2024-02-21T12:06:57;99860.38;;;10.61;54.66
69855;BME280;57146;48.140;16.304;2024-02-21T12:09:26;99856.97;;;10.60;54.31
69855;BME280;57146;48.140;16.304;2024-02-21T12:12:01;99856.47;;;10.58;53.06
69855;BME280;57146;48.140;16.304;2024-02-21T12:14:30;99851.84;;;10.50;51.44
69855;BME280;57146;48.140;16.304;2024-02-21T12:16:58;99845.88;;;10.44;51.60
69855;BME280;57146;48.140;16.304;2024-02-21T12:19:25;99847.22;;;10.42;52.13
69855;BME280;57146;48.140;16.304;2024-02-21T12:21:53;99836.41;;;10.43;53.39
69855;BME280;57146;48.140;16.304;2024-02-21T12:24:24;99833.00;;;10.43;52.83
69855;BME280;57146;48.140;16.304;2024-02-21T12:26:52;99836.69;;;10.42;53.31
69855;BME280;57146;48.140;16.304;2024-02-21T12:29:20;99829.66;;;10.37;52.46
69855;BME280;57146;48.140;16.304;2024-02-21T12:31:47;99825.94;;;10.38;54.00
69855;BME280;57146;48.140;16.304;2024-02-21T12:34:16;99818.91;;;10.34;52.26
69855;BME280;57146;48.140;16.304;2024-02-21T12:36:56;99822.59;;;10.33;53.60
69855;BME280;57146;48.140;16.304;2024-02-21T12:39:23;99821.88;;;10.27;53.54
69855;BME280;57146;48.140;16.304;2024-02-21T12:41:51;99831.84;;;10.30;54.73
69855;BME280;57146;48.140;16.304;2024-02-21T12:44:18;99825.81;;;10.24;52.71
69855;BME280;57146;48.140;16.304;2024-02-21T12:46:45;99819.00;;;10.23;52.76
69855;BME280;57146;48.140;16.304;2024-02-21T12:49:12;99814.81;;;10.22;54.33
69855;BME280;57146;48.140;16.304;2024-02-21T12:51:39;99803.75;;;10.25;54.67
69855;BME280;57146;48.140;16.304;2024-02-21T12:54:06;99801.13;;;10.25;53.98
69855;BME280;57146;48.140;16.304;2024-02-21T12:56:33;99802.69;;;10.26;53.67
69855;BME280;57146;48.140;16.304;2024-02-21T12:59:00;99802.38;;;10.28;52.27
69855;BME280;57146;48.140;16.304;2024-02-21T13:01:27;99790.03;;;10.28;52.89
69855;BME280;57146;48.140;16.304;2024-02-21T13:03:54;99797.84;;;10.34;54.73